Time;durP1;ratioP1;P1;durP2;ratioP2;P2;SDS_P1;SDS_P2;PMS_P1;PMS_P2;Temp;Humidity;BMP_temperature;BMP_pressure;BME280_temperature;BME280_humidity;BME280_pressure;Samples;Min_cycle;Max_cycle;Signal;HPM_P1;HPM_P2
2021/03/26 00:01:34;;;;;;;11.02;10.38;;;21.80;99.90;;;;;;5096044;28;20085;-61
2021/03/26 00:04:05;;;;;;;12.40;11.30;;;21.90;99.90;;;;;;5095244;28;20107;-61
2021/03/26 00:06:36;;;;;;;11.82;10.95;;;22.10;99.90;;;;;;5095140;28;20453;-61
2021/03/26 00:09:06;;;;;;;11.60;10.60;;;21.90;99.90;;;;;;5095744;28;20121;-61
2021/03/26 00:11:34;;;;;;;12.20;11.20;;;21.90;99.90;;;;;;5094034;28;20028;-61
2021/03/26 00:14:02;;;;;;;11.90;11.10;;;21.80;99.90;;;;;;5093707;28;20040;-61
2021/03/26 00:16:30;;;;;;;11.32;10.52;;;21.90;99.90;;;;;;5095843;28;20024;-61
2021/03/26 00:18:57;;;;;;;11.45;10.68;;;21.70;99.90;;;;;;5094850;28;20031;-60
2021/03/26 00:21:25;;;;;;;10.65;9.85;;;21.80;99.90;;;;;;5094287;28;20020;-59
2021/03/26 00:23:53;;;;;;;10.85;9.82;;;21.90;99.90;;;;;;5095164;28;20074;-60
2021/03/26 00:26:21;;;;;;;10.40;9.50;;;21.90;99.90;;;;;;5094838;28;20024;-60
2021/03/26 00:28:49;;;;;;;10.32;9.63;;;22.00;99.90;;;;;;5094710;28;20069;-63
2021/03/26 00:31:17;;;;;;;10.75;9.98;;;22.10;99.90;;;;;;5094568;28;20016;-63
2021/03/26 00:33:45;;;;;;;10.57;9.88;;;22.50;99.90;;;;;;5094618;28;20026;-63
2021/03/26 00:36:13;;;;;;;10.27;9.55;;;22.50;99.90;;;;;;5094741;28;20031;-63
2021/03/26 00:38:41;;;;;;;10.05;9.45;;;22.60;99.90;;;;;;5094347;28;20024;-63
2021/03/26 00:41:09;;;;;;;10.63;9.90;;;22.70;99.90;;;;;;5094788;28;20095;-63
2021/03/26 00:43:36;;;;;;;10.70;9.88;;;22.50;99.90;;;;;;5094375;28;20019;-67
2021/03/26 00:46:04;;;;;;;9.68;8.85;;;21.90;99.90;;;;;;5094383;28;20362;-63
2021/03/26 00:48:31;;;;;;;9.25;8.60;;;21.90;99.90;;;;;;5094433;28;20354;-66
2021/03/26 00:51:01;;;;;;;9.93;9.32;;;22.30;99.90;;;;;;5094298;28;20077;-66
2021/03/26 00:53:36;;;;;;;9.85;9.25;;;22.50;99.90;;;;;;5094647;28;20035;-65
2021/03/26 00:56:05;;;;;;;10.30;9.60;;;22.40;99.90;;;;;;5094279;28;20524;-66
2021/03/26 00:58:33;;;;;;;10.03;9.20;;;22.40;99.90;;;;;;5094077;28;20434;-63
2021/03/26 01:01:01;;;;;;;10.25;9.48;;;22.60;99.90;;;;;;5094260;28;20028;-62
2021/03/26 01:03:31;;;;;;;9.85;9.25;;;22.60;99.90;;;;;;5094166;28;20020;-62
2021/03/26 01:06:03;;;;;;;9.45;8.82;;;22.90;99.90;;;;;;5094178;28;20042;-62
2021/03/26 01:08:30;;;;;;;10.13;9.15;;;23.40;99.90;;;;;;5094379;28;20020;-62
2021/03/26 01:11:07;;;;;;;9.95;9.05;;;23.60;99.90;;;;;;5093894;28;20031;-62
2021/03/26 01:13:35;;;;;;;9.95;9.25;;;24.00;99.90;;;;;;5094077;28;20028;-64
2021/03/26 01:16:03;;;;;;;9.50;8.82;;;24.10;99.90;;;;;;5093974;28;20031;-63
2021/03/26 01:18:41;;;;;;;9.70;8.98;;;24.40;99.90;;;;;;5093958;28;20020;-63
2021/03/26 01:21:11;;;;;;;10.23;9.32;;;24.00;99.90;;;;;;5093733;28;20035;-63
2021/03/26 01:23:38;;;;;;;10.05;8.60;;;23.50;99.90;;;;;;5093893;28;20384;-63
2021/03/26 01:26:06;;;;;;;9.40;8.73;;;23.70;99.90;;;;;;5094070;28;20027;-63
2021/03/26 01:28:33;;;;;;;9.68;8.75;;;23.70;99.90;;;;;;5093628;28;20023;-63
2021/03/26 01:31:01;;;;;;;9.10;8.23;;;23.40;99.90;;;;;;5093356;28;20370;-63
2021/03/26 01:33:28;;;;;;;9.00;8.30;;;23.20;99.90;;;;;;5093029;28;20016;-63
2021/03/26 01:35:56;;;;;;;9.15;8.35;;;23.20;99.90;;;;;;5093612;28;20027;-63
2021/03/26 01:38:25;;;;;;;10.77;9.15;;;23.00;99.90;;;;;;5094424;28;20103;-63
2021/03/26 01:40:57;;;;;;;10.20;9.35;;;23.00;99.90;;;;;;5093340;28;20404;-63
2021/03/26 01:43:28;;;;;;;10.52;9.73;;;22.80;99.90;;;;;;5093343;28;20020;-63
2021/03/26 01:45:56;;;;;;;9.80;9.00;;;22.80;99.90;;;;;;5093496;28;20012;-63
2021/03/26 01:48:34;;;;;;;9.88;9.18;;;22.60;99.90;;;;;;5093419;28;20023;-64
2021/03/26 01:51:05;;;;;;;10.50;9.48;;;22.70;99.90;;;;;;5093412;28;20424;-65
2021/03/26 01:53:33;;;;;;;11.00;9.90;;;22.60;99.90;;;;;;5093869;28;20032;-65
2021/03/26 01:56:03;;;;;;;10.20;9.50;;;22.40;99.90;;;;;;5093333;28;20031;-67
2021/03/26 01:58:33;;;;;;;10.77;9.25;;;22.20;99.90;;;;;;5093377;28;20515;-66
2021/03/26 02:01:08;;;;;;;11.05;9.95;;;22.20;99.90;;;;;;5093160;28;20039;-65
2021/03/26 02:03:40;;;;;;;10.90;10.10;;;22.10;99.90;;;;;;5093364;28;20095;-65
2021/03/26 02:06:23;;;;;;;11.75;10.80;;;22.00;99.90;;;;;;5093474;28;20464;-64
2021/03/26 02:08:52;;;;;;;11.10;10.20;;;22.20;99.90;;;;;;5093800;28;20031;-65
2021/03/26 02:11:31;;;;;;;11.25;10.40;;;22.40;99.90;;;;;;5093199;28;20129;-65
2021/03/26 02:14:01;;;;;;;11.15;10.23;;;23.20;99.90;;;;;;5093518;28;20024;-63
2021/03/26 02:16:30;;;;;;;11.98;10.80;;;23.60;99.90;;;;;;5093505;28;20027;-64
2021/03/26 02:18:57;;;;;;;11.60;10.60;;;24.30;99.90;;;;;;5093128;28;20111;-65
2021/03/26 02:21:30;;;;;;;12.05;10.75;;;24.60;99.90;;;;;;5093230;28;20473;-63
2021/03/26 02:24:01;;;;;;;12.18;11.07;;;24.60;99.90;;;;;;5093139;28;20024;-63
2021/03/26 02:26:39;;;;;;;12.18;11.13;;;24.20;99.90;;;;;;5091976;28;20022;-63
2021/03/26 02:29:22;;;;;;;11.15;10.10;;;24.00;99.90;;;;;;5093273;28;20024;-64
2021/03/26 02:32:08;;;;;;;10.30;9.43;;;23.70;99.90;;;;;;5092934;28;20390;-64
2021/03/26 02:34:36;;;;;;;10.48;9.70;;;23.70;99.90;;;;;;5092976;28;20048;-63
2021/03/26 02:37:11;;;;;;;10.55;9.85;;;23.90;99.90;;;;;;5092508;28;20020;-64
2021/03/26 02:39:46;;;;;;;10.07;9.23;;;23.70;99.90;;;;;;5092840;28;20044;-64
2021/03/26 02:42:29;;;;;;;10.88;9.77;;;23.90;99.90;;;;;;5092816;28;20016;-64
2021/03/26 02:44:57;;;;;;;10.45;9.32;;;24.00;99.90;;;;;;5096592;28;20110;-64
2021/03/26 02:47:55;;;;;;;10.77;9.77;;;24.00;99.90;;;;;;5097280;28;20046;-65
2021/03/26 02:50:46;;;;;;;9.95;9.25;;;23.90;99.90;;;;;;5096537;28;20119;-65
2021/03/26 02:53:20;;;;;;;10.20;9.45;;;24.00;99.90;;;;;;5096740;28;20105;-65
2021/03/26 02:56:16;;;;;;;10.50;9.50;;;23.90;99.90;;;;;;5096640;28;20468;-61
2021/03/26 02:58:54;;;;;;;10.05;9.20;;;23.80;99.90;;;;;;5096845;28;20048;-63
2021/03/26 03:01:45;;;;;;;10.93;9.40;;;23.50;99.90;;;;;;5096494;28;20551;-63
2021/03/26 03:04:12;;;;;;;9.43;8.70;;;23.80;99.90;;;;;;5096440;28;20055;-63
2021/03/26 03:06:51;;;;;;;9.13;8.48;;;23.90;99.90;;;;;;5096183;28;20020;-62
2021/03/26 03:09:23;;;;;;;9.65;8.88;;;23.80;99.90;;;;;;5096813;28;20069;-62
2021/03/26 03:11:58;;;;;;;9.48;8.85;;;24.00;99.90;;;;;;5096305;28;20024;-63
2021/03/26 03:14:29;;;;;;;8.70;8.10;;;24.40;99.90;;;;;;5096788;28;20049;-62
2021/03/26 03:17:23;;;;;;;9.00;8.30;;;24.20;99.90;;;;;;5096691;28;20020;-62
2021/03/26 03:20:23;;;;;;;9.60;9.00;;;24.30;99.90;;;;;;5085409;28;20070;-63
2021/03/26 03:23:15;;;;;;;9.98;9.18;;;24.40;99.90;;;;;;5026152;28;20047;-62
2021/03/26 03:25:43;;;;;;;9.98;9.23;;;24.30;99.90;;;;;;5096186;28;20464;-62
2021/03/26 03:28:31;;;;;;;10.38;9.38;;;24.50;99.90;;;;;;5095780;28;20032;-63
2021/03/26 03:31:23;;;;;;;10.05;9.23;;;24.10;99.90;;;;;;5095638;28;20445;-63
2021/03/26 03:34:06;;;;;;;10.27;9.57;;;24.30;99.90;;;;;;5095871;28;20028;-62
2021/03/26 03:37:05;;;;;;;9.63;8.90;;;24.20;99.90;;;;;;5096331;28;20020;-61
2021/03/26 03:39:43;;;;;;;9.27;8.68;;;24.00;99.90;;;;;;5095315;28;20055;-63
2021/03/26 03:42:22;;;;;;;10.00;9.23;;;24.10;99.90;;;;;;5096125;28;20134;-62
2021/03/26 03:45:01;;;;;;;10.13;9.25;;;24.00;99.90;;;;;;5095689;28;20433;-62
2021/03/26 03:47:44;;;;;;;9.65;8.95;;;24.00;99.90;;;;;;5095591;28;20047;-62
2021/03/26 03:50:25;;;;;;;9.25;8.65;;;24.00;99.90;;;;;;5095845;28;20028;-62
2021/03/26 03:53:17;;;;;;;9.25;8.45;;;24.30;99.90;;;;;;5095377;28;20060;-63
2021/03/26 03:56:03;;;;;;;9.55;8.80;;;24.40;99.90;;;;;;5094607;28;20047;-62
2021/03/26 03:58:39;;;;;;;9.25;8.50;;;24.20;99.90;;;;;;5095833;28;20445;-62
2021/03/26 04:01:26;;;;;;;9.02;8.32;;;24.40;99.90;;;;;;5094216;28;20024;-62
2021/03/26 04:04:15;;;;;;;8.70;8.20;;;24.50;99.90;;;;;;5093895;28;20020;-62
2021/03/26 04:07:00;;;;;;;9.20;8.50;;;24.90;99.90;;;;;;5094937;28;20020;-62
2021/03/26 04:09:51;;;;;;;8.63;8.02;;;24.60;99.90;;;;;;5093711;28;20542;-62
2021/03/26 04:12:28;;;;;;;9.25;8.55;;;24.60;99.90;;;;;;5094604;28;20047;-62
2021/03/26 04:15:05;;;;;;;8.75;8.35;;;24.40;99.90;;;;;;5095319;28;20031;-62
2021/03/26 04:17:46;;;;;;;8.90;8.40;;;24.30;99.90;;;;;;5095539;28;20488;-62
2021/03/26 04:20:27;;;;;;;9.40;8.68;;;23.50;99.90;;;;;;5095206;28;20113;-63
2021/03/26 04:23:26;;;;;;;9.82;8.93;;;22.90;99.90;;;;;;5094852;28;20028;-62
2021/03/26 04:26:18;;;;;;;10.05;9.30;;;22.90;99.90;;;;;;5053652;28;20036;-63
2021/03/26 04:28:52;;;;;;;9.73;8.98;;;23.40;99.90;;;;;;5095263;28;20024;-62
2021/03/26 04:31:26;;;;;;;10.30;9.60;;;23.50;99.90;;;;;;5094650;28;20023;-63
2021/03/26 04:33:54;;;;;;;11.65;10.48;;;23.70;99.90;;;;;;5094920;28;20028;-63
2021/03/26 04:36:54;;;;;;;9.90;9.20;;;23.70;99.90;;;;;;5094799;28;20055;-63
2021/03/26 04:39:30;;;;;;;9.40;8.80;;;24.00;99.90;;;;;;5092775;28;20044;-62
2021/03/26 04:42:11;;;;;;;9.77;8.90;;;24.00;99.90;;;;;;5095001;28;20055;-63
2021/03/26 04:44:48;;;;;;;9.80;9.00;;;24.10;99.90;;;;;;5094262;28;20052;-62
2021/03/26 04:47:30;;;;;;;9.40;8.70;;;24.30;99.90;;;;;;5094473;28;20019;-62
2021/03/26 04:50:14;;;;;;;11.25;9.20;;;24.10;99.90;;;;;;5094207;28;20377;-63
2021/03/26 04:52:49;;;;;;;9.80;8.90;;;24.30;99.90;;;;;;5092915;28;20030;-62
2021/03/26 04:55:28;;;;;;;9.57;8.18;;;24.60;99.90;;;;;;5094271;28;20052;-63
2021/03/26 04:58:08;;;;;;;9.50;8.60;;;24.60;99.90;;;;;;5094185;28;20020;-63
2021/03/26 05:00:36;;;;;;;9.50;8.90;;;24.50;99.90;;;;;;5094685;28;20020;-63
2021/03/26 05:03:23;;;;;;;9.60;8.90;;;24.40;99.90;;;;;;5094446;28;20019;-63
2021/03/26 05:06:00;;;;;;;9.20;8.40;;;24.00;99.90;;;;;;5094252;28;20407;-63
2021/03/26 05:08:28;;;;;;;9.30;8.70;;;24.10;99.90;;;;;;5094282;28;20468;-62
2021/03/26 05:11:01;;;;;;;10.20;9.32;;;24.40;99.90;;;;;;5093829;28;20020;-63
2021/03/26 05:13:43;;;;;;;9.75;9.00;;;24.60;99.90;;;;;;5092456;28;20379;-62
2021/03/26 05:16:27;;;;;;;9.48;8.80;;;24.80;99.90;;;;;;5094322;28;20123;-63
2021/03/26 05:19:15;;;;;;;9.85;9.05;;;24.80;99.90;;;;;;5093738;28;20012;-63
2021/03/26 05:22:12;;;;;;;9.90;9.20;;;24.90;99.90;;;;;;5093405;28;20039;-63
2021/03/26 05:24:54;;;;;;;9.52;8.80;;;24.70;99.90;;;;;;5062859;28;20051;-63
2021/03/26 05:27:22;;;;;;;9.80;9.15;;;24.50;99.90;;;;;;5092300;28;20377;-63
2021/03/26 05:29:49;;;;;;;8.95;8.25;;;24.70;99.90;;;;;;5093691;28;20077;-62
2021/03/26 05:32:27;;;;;;;10.07;9.05;;;24.50;99.90;;;;;;5093405;28;20617;-62
2021/03/26 05:34:57;;;;;;;8.95;8.32;;;24.10;99.90;;;;;;5093923;28;20020;-62
2021/03/26 05:37:52;;;;;;;8.00;7.50;;;23.80;99.90;;;;;;5094264;28;20093;-63
2021/03/26 05:40:56;;;;;;;8.57;7.97;;;23.80;99.90;;;;;;5093418;28;20055;-63
2021/03/26 05:43:54;;;;;;;8.90;8.20;;;23.80;99.90;;;;;;5093379;28;20024;-63
2021/03/26 05:46:35;;;;;;;10.00;9.40;;;23.70;99.90;;;;;;5093653;28;20020;-63
2021/03/26 05:49:30;;;;;;;9.50;8.25;;;23.60;99.90;;;;;;5093777;28;20020;-64
2021/03/26 05:52:19;;;;;;;9.98;9.27;;;23.40;99.90;;;;;;5093205;28;20103;-63
2021/03/26 05:54:50;;;;;;;10.27;9.32;;;23.40;99.90;;;;;;5093227;28;20024;-63
2021/03/26 05:57:55;;;;;;;9.75;8.98;;;23.40;99.90;;;;;;5091685;28;20024;-63
2021/03/26 06:00:43;;;;;;;9.50;8.50;;;23.00;99.90;;;;;;5011239;28;20037;-65
2021/03/26 06:03:28;;;;;;;9.73;9.02;;;23.20;99.90;;;;;;4994432;28;20160;-61
2021/03/26 06:06:20;;;;;;;9.18;8.40;;;23.10;99.90;;;;;;5073079;28;20107;-65
2021/03/26 06:09:01;;;;;;;9.23;8.52;;;23.00;99.90;;;;;;5092714;28;20020;-61
2021/03/26 06:11:49;;;;;;;9.82;9.23;;;23.00;99.90;;;;;;5093280;28;20091;-61
2021/03/26 06:14:38;;;;;;;10.00;9.10;;;23.00;99.90;;;;;;5092836;28;20419;-61
2021/03/26 06:17:35;;;;;;;10.18;9.40;;;22.90;99.90;;;;;;5093332;28;20492;-61
2021/03/26 06:20:47;;;;;;;9.73;9.07;;;23.00;99.90;;;;;;5096834;28;20024;-62
2021/03/26 06:23:38;;;;;;;9.30;8.70;;;23.10;99.90;;;;;;5015194;28;20038;-62
2021/03/26 06:26:29;;;;;;;9.00;8.40;;;23.40;99.90;;;;;;5015173;28;20056;-62
2021/03/26 06:29:12;;;;;;;9.43;8.63;;;23.60;99.90;;;;;;5084830;28;20039;-62
2021/03/26 06:32:28;;;;;;;8.88;8.38;;;24.40;99.90;;;;;;5096610;28;20054;-62
2021/03/26 06:35:21;;;;;;;9.80;9.00;;;24.00;99.90;;;;;;5095206;28;20053;-65
2021/03/26 06:38:14;;;;;;;10.30;9.52;;;23.30;99.90;;;;;;5061183;28;20492;-63
2021/03/26 06:41:02;;;;;;;10.07;9.00;;;22.90;99.90;;;;;;5096464;28;20048;-61
2021/03/26 06:44:01;;;;;;;10.20;9.30;;;22.70;99.90;;;;;;5097106;28;20028;-61
2021/03/26 06:46:58;;;;;;;9.90;8.93;;;22.50;99.90;;;;;;5055109;28;20396;-60
2021/03/26 06:49:37;;;;;;;9.18;8.38;;;22.20;99.90;;;;;;5096610;28;20024;-61
2021/03/26 06:52:15;;;;;;;10.85;10.00;;;22.10;99.90;;;;;;5097294;28;20024;-60
2021/03/26 06:55:04;;;;;;;10.07;9.18;;;21.90;99.90;;;;;;5096410;28;20039;-61
2021/03/26 06:57:50;;;;;;;10.73;9.80;;;21.80;99.90;;;;;;5096844;28;20379;-61
2021/03/26 07:00:49;;;;;;;10.85;9.95;;;21.80;99.90;;;;;;5096353;28;20016;-61
2021/03/26 07:03:25;;;;;;;10.63;9.75;;;21.70;99.90;;;;;;5095949;28;20389;-61
2021/03/26 07:06:11;;;;;;;10.88;10.20;;;21.90;99.90;;;;;;5096734;28;20210;-61
2021/03/26 07:08:38;;;;;;;12.15;11.02;;;21.80;99.90;;;;;;5096689;28;20091;-61
2021/03/26 07:11:36;;;;;;;11.73;10.65;;;21.70;99.90;;;;;;5096504;28;20016;-61
2021/03/26 07:14:24;;;;;;;12.32;11.30;;;21.70;99.90;;;;;;5094791;28;20026;-61
2021/03/26 07:17:28;;;;;;;12.82;11.85;;;21.60;99.90;;;;;;5095835;28;20122;-61
2021/03/26 07:20:25;;;;;;;13.38;12.38;;;21.60;99.90;;;;;;5095955;28;20163;-61
2021/03/26 07:23:32;;;;;;;13.20;12.05;;;21.60;99.90;;;;;;5096022;28;20032;-60
2021/03/26 07:26:20;;;;;;;13.63;12.60;;;21.50;99.90;;;;;;5095759;28;20024;-61
2021/03/26 07:29:30;;;;;;;14.35;13.27;;;21.30;99.90;;;;;;5094330;28;20460;-62
2021/03/26 07:32:12;;;;;;;15.70;14.30;;;21.30;99.90;;;;;;5096091;28;20020;-62
2021/03/26 07:35:04;;;;;;;15.07;13.93;;;21.20;99.90;;;;;;5096287;28;20020;-62
2021/03/26 07:37:47;;;;;;;16.50;15.10;;;21.10;99.90;;;;;;5095649;28;20023;-61
2021/03/26 07:40:42;;;;;;;17.05;15.90;;;21.00;99.90;;;;;;5095518;28;20432;-62
2021/03/26 07:43:21;;;;;;;18.80;17.20;;;20.80;99.90;;;;;;5095573;28;20440;-62
2021/03/26 07:46:21;;;;;;;21.08;19.52;;;20.70;99.90;;;;;;5095869;28;20059;-62
2021/03/26 07:48:57;;;;;;;23.55;21.85;;;20.60;99.90;;;;;;5095431;28;20480;-62
2021/03/26 07:51:32;;;;;;;25.55;24.13;;;20.40;99.90;;;;;;5095243;28;20031;-62
2021/03/26 07:54:25;;;;;;;27.92;25.65;;;20.40;99.90;;;;;;5095453;28;20020;-62
2021/03/26 07:57:13;;;;;;;29.77;27.80;;;20.30;99.90;;;;;;5095453;28;20110;-62
2021/03/26 07:59:48;;;;;;;30.70;28.67;;;20.20;99.90;;;;;;5095566;28;20027;-62
2021/03/26 08:02:40;;;;;;;34.20;32.22;;;20.10;99.90;;;;;;5095692;28;20161;-62
2021/03/26 08:05:23;;;;;;;35.05;32.60;;;20.00;99.90;;;;;;5095054;28;20016;-62
2021/03/26 08:08:26;;;;;;;38.70;36.47;;;20.00;99.90;;;;;;5095677;28;20024;-61
2021/03/26 08:11:30;;;;;;;43.33;40.72;;;19.90;99.90;;;;;;5095163;28;20020;-63
2021/03/26 08:14:21;;;;;;;46.78;44.08;;;19.80;99.90;;;;;;5095118;28;20051;-62
2021/03/26 08:17:29;;;;;;;47.28;44.33;;;19.70;99.90;;;;;;5094929;28;20020;-62
2021/03/26 08:20:31;;;;;;;48.35;45.40;;;19.70;99.90;;;;;;5067897;28;20071;-61
2021/03/26 08:23:18;;;;;;;50.08;47.03;;;19.70;99.90;;;;;;5094683;28;20016;-61
2021/03/26 08:26:12;;;;;;;50.25;47.45;;;19.60;99.90;;;;;;5094801;28;20551;-61
2021/03/26 08:29:24;;;;;;;50.58;47.60;;;19.60;99.90;;;;;;5094719;28;20101;-61
2021/03/26 08:32:13;;;;;;;51.15;47.90;;;19.50;99.90;;;;;;5095101;28;20380;-61
2021/03/26 08:34:58;;;;;;;49.13;45.97;;;19.50;99.90;;;;;;5095189;28;20099;-61
2021/03/26 08:38:02;;;;;;;49.58;46.40;;;19.50;99.90;;;;;;5095083;28;20024;-61
2021/03/26 08:40:51;;;;;;;51.42;48.33;;;19.50;99.90;;;;;;5094249;28;20048;-61
2021/03/26 08:43:20;;;;;;;51.95;48.55;;;19.50;99.90;;;;;;5094315;28;20020;-61
2021/03/26 08:46:09;;;;;;;54.35;51.15;;;19.50;99.90;;;;;;5094209;28;20130;-61
2021/03/26 08:48:54;;;;;;;55.15;51.67;;;19.40;99.90;;;;;;5094177;28;20412;-60
2021/03/26 08:51:58;;;;;;;56.97;52.97;;;19.30;99.90;;;;;;5093028;28;20051;-60
2021/03/26 08:54:58;;;;;;;59.78;56.17;;;19.10;99.90;;;;;;5094776;28;20028;-61
2021/03/26 08:58:02;;;;;;;58.92;55.55;;;19.10;99.90;;;;;;5094770;28;20077;-64
2021/03/26 09:00:48;;;;;;;60.17;56.40;;;19.00;99.90;;;;;;5094167;28;20020;-61
2021/03/26 09:03:21;;;;;;;61.30;57.53;;;19.00;99.90;;;;;;5094304;28;20043;-61
2021/03/26 09:06:20;;;;;;;58.53;54.95;;;18.90;99.90;;;;;;5094664;28;20016;-60
2021/03/26 09:09:14;;;;;;;56.65;53.15;;;18.80;99.90;;;;;;5092686;28;20481;-60
2021/03/26 09:12:09;;;;;;;56.03;52.63;;;18.80;99.90;;;;;;5092589;28;20062;-60
2021/03/26 09:14:55;;;;;;;58.20;54.33;;;18.70;99.90;;;;;;5094289;28;20031;-60
2021/03/26 09:17:43;;;;;;;57.17;53.58;;;18.80;99.90;;;;;;5092547;28;20027;-60
2021/03/26 09:20:34;;;;;;;55.75;52.20;;;18.80;99.90;;;;;;5093804;28;20020;-61
2021/03/26 09:33:08;;;;;;;59.63;55.67;;;18.90;99.90;;;;;;5093863;28;20059;-60
2021/03/26 09:35:38;;;;;;;57.78;54.15;;;18.80;99.90;;;;;;5093439;28;20032;-61
2021/03/26 09:38:21;;;;;;;59.83;56.25;;;18.80;99.90;;;;;;5094114;28;20032;-61
2021/03/26 09:41:10;;;;;;;57.47;53.90;;;18.80;99.90;;;;;;5094134;28;20044;-61
2021/03/26 09:43:49;;;;;;;56.92;53.28;;;18.90;99.90;;;;;;5093525;28;20111;-61
2021/03/26 09:46:37;;;;;;;58.53;54.83;;;18.90;99.90;;;;;;5093411;28;20047;-61
2021/03/26 09:49:28;;;;;;;59.00;55.42;;;18.90;99.90;;;;;;5093404;28;20107;-61
2021/03/26 09:52:17;;;;;;;54.47;50.88;;;18.90;99.90;;;;;;5093991;28;20091;-61
2021/03/26 09:54:47;;;;;;;52.88;49.78;;;18.90;99.90;;;;;;5093607;28;20373;-61
2021/03/26 09:57:25;;;;;;;53.00;49.67;;;18.90;99.90;;;;;;5093535;28;20371;-61
2021/03/26 09:59:56;;;;;;;66.80;61.30;;;18.90;99.90;;;;;;5093335;28;20402;-61
2021/03/26 10:02:56;;;;;;;57.10;53.40;;;18.90;99.90;;;;;;5093267;28;20097;-61
2021/03/26 10:05:29;;;;;;;;;;;18.90;99.90;;;;;;5093953;28;20020;-61
2021/03/26 10:08:33;;;;;;;56.17;52.90;;;18.90;99.90;;;;;;5093578;28;19965;-61
2021/03/26 10:11:07;;;;;;;;;;;18.90;99.90;;;;;;5093508;28;20081;-61
2021/03/26 10:13:48;;;;;;;59.67;56.17;;;18.90;99.90;;;;;;5093157;28;19904;-61
2021/03/26 10:16:25;;;;;;;58.38;54.47;;;18.90;99.90;;;;;;5091899;28;20020;-61
2021/03/26 10:19:08;;;;;;;59.20;55.60;;;18.90;99.90;;;;;;5093080;28;20032;-61
2021/03/26 10:21:46;;;;;;;58.35;54.63;;;19.00;99.90;;;;;;5091707;28;20032;-61
2021/03/26 10:24:31;;;;;;;60.17;56.58;;;19.00;99.90;;;;;;5093220;28;20027;-61
2021/03/26 10:27:05;;;;;;;63.42;59.28;;;19.00;99.90;;;;;;5093134;28;20495;-61
2021/03/26 10:29:51;;;;;;;60.90;57.03;;;18.90;99.90;;;;;;5093168;28;20020;-61
2021/03/26 10:32:33;;;;;;;58.20;54.70;;;19.00;99.90;;;;;;5093348;28;20112;-61
2021/03/26 10:35:18;;;;;;;59.33;55.72;;;18.90;99.90;;;;;;5093513;28;20142;-61
2021/03/26 10:38:04;;;;;;;58.63;54.97;;;19.00;99.90;;;;;;5091625;28;20388;-61
2021/03/26 10:40:50;;;;;;;57.88;54.28;;;19.00;99.90;;;;;;5092726;28;20044;-61
2021/03/26 10:43:26;;;;;;;56.75;53.38;;;19.00;99.90;;;;;;5093180;28;20059;-61
2021/03/26 10:46:06;;;;;;;58.42;54.72;;;18.90;99.90;;;;;;5092968;28;20492;-62
2021/03/26 10:48:46;;;;;;;58.15;54.75;;;18.90;99.90;;;;;;5093380;28;20095;-62
2021/03/26 10:51:31;;;;;;;58.45;54.70;;;18.80;99.90;;;;;;5093324;28;20129;-62
2021/03/26 10:54:12;;;;;;;59.08;55.72;;;18.70;99.90;;;;;;5093268;28;20044;-61
2021/03/26 10:56:50;;;;;;;60.58;56.95;;;18.70;99.90;;;;;;5092906;28;20020;-61
2021/03/26 10:59:40;;;;;;;59.20;55.45;;;18.60;99.90;;;;;;5092814;28;20411;-62
2021/03/26 11:02:46;;;;;;;61.80;57.97;;;18.50;99.90;;;;;;5092746;28;20460;-61
2021/03/26 11:05:25;;;;;;;63.28;59.38;;;18.40;99.90;;;;;;5095154;28;20020;-61
2021/03/26 11:08:02;;;;;;;63.63;59.55;;;18.30;99.90;;;;;;5096319;28;20525;-62
2021/03/26 11:11:16;;;;;;;65.55;61.70;;;18.30;99.90;;;;;;5096378;28;20082;-62
2021/03/26 11:14:01;;;;;;;64.20;60.15;;;18.20;99.90;;;;;;5024397;28;20038;-62
2021/03/26 11:16:59;;;;;;;66.03;61.90;;;18.20;99.90;;;;;;5096835;28;20091;-62
2021/03/26 11:19:36;;;;;;;66.82;62.88;;;18.20;99.90;;;;;;5096078;28;20038;-62
2021/03/26 11:22:19;;;;;;;68.13;64.03;;;18.20;99.90;;;;;;5095952;28;20032;-62
2021/03/26 11:25:04;;;;;;;66.88;63.00;;;18.20;99.90;;;;;;5096446;28;20056;-63
2021/03/26 11:27:55;;;;;;;69.65;65.50;;;18.10;99.90;;;;;;5094694;28;20028;-62
2021/03/26 11:30:25;;;;;;;71.10;66.75;;;18.20;99.90;;;;;;5096013;28;20070;-62
2021/03/26 11:33:21;;;;;;;69.78;65.88;;;18.20;99.90;;;;;;5095897;28;20093;-62
2021/03/26 11:35:51;;;;;;;70.15;65.75;;;18.10;99.90;;;;;;5058041;28;20075;-62
2021/03/26 11:38:24;;;;;;;71.03;66.68;;;18.20;99.90;;;;;;5095841;28;20047;-62
2021/03/26 11:41:06;;;;;;;72.00;67.68;;;18.10;99.90;;;;;;5095691;28;20405;-62
2021/03/26 11:43:42;;;;;;;73.55;69.25;;;18.10;99.90;;;;;;5094370;28;20028;-62
2021/03/26 11:46:20;;;;;;;72.97;68.57;;;18.10;99.90;;;;;;5095783;28;20017;-62
2021/03/26 11:48:53;;;;;;;74.05;69.25;;;18.10;99.90;;;;;;5095508;28;20031;-61
2021/03/26 11:51:41;;;;;;;72.40;68.20;;;18.10;99.90;;;;;;5095673;28;20380;-61
2021/03/26 11:54:10;;;;;;;73.57;69.35;;;18.10;99.90;;;;;;5095456;28;20468;-62
2021/03/26 11:56:40;;;;;;;76.82;72.32;;;18.20;99.90;;;;;;5096006;28;20087;-62
2021/03/26 11:59:25;;;;;;;;;;;18.20;99.90;;;;;;5095877;28;20020;-62
2021/03/26 12:02:08;;;;;;;76.30;71.90;;;18.30;99.90;;;;;;5095864;28;19937;-62
2021/03/26 12:05:09;;;;;;;76.47;71.80;;;18.30;99.90;;;;;;5095396;28;20055;-62
2021/03/26 12:07:59;;;;;;;75.68;71.28;;;18.30;99.90;;;;;;5095136;28;20023;-61
2021/03/26 12:10:38;;;;;;;76.85;72.25;;;18.30;99.90;;;;;;5095179;28;20384;-61
2021/03/26 12:13:06;;;;;;;74.35;69.82;;;18.20;99.90;;;;;;5095226;28;20476;-62
2021/03/26 12:16:19;;;;;;;74.93;70.65;;;18.20;99.90;;;;;;5094630;28;20095;-61
2021/03/26 12:19:00;;;;;;;73.85;69.65;;;18.20;99.90;;;;;;5092266;28;20038;-62
2021/03/26 12:21:30;;;;;;;73.75;69.32;;;18.20;99.90;;;;;;5095511;28;20107;-62
2021/03/26 12:24:22;;;;;;;74.60;70.00;;;18.20;99.90;;;;;;5094885;28;20024;-62
2021/03/26 12:26:56;;;;;;;77.03;72.47;;;18.30;99.90;;;;;;5094928;28;20024;-63
2021/03/26 12:29:46;;;;;;;75.57;71.07;;;18.40;99.90;;;;;;5094776;28;20033;-63
2021/03/26 12:32:28;;;;;;;76.20;71.65;;;18.40;99.90;;;;;;5094845;28;20376;-62
2021/03/26 12:35:14;;;;;;;72.97;68.68;;;18.50;99.90;;;;;;5094807;28;20419;-62
2021/03/26 12:38:00;;;;;;;76.05;71.07;;;18.50;99.90;;;;;;5095263;28;20580;-61
2021/03/26 12:40:47;;;;;;;74.72;70.32;;;18.50;99.90;;;;;;5094450;28;20493;-62
2021/03/26 12:43:20;;;;;;;75.97;71.57;;;18.60;99.90;;;;;;5080495;28;20044;-62
2021/03/26 12:46:03;;;;;;;75.90;71.10;;;18.60;99.90;;;;;;5095636;28;20040;-61
2021/03/26 12:48:50;;;;;;;74.10;69.75;;;18.60;99.90;;;;;;5095103;28;20107;-62
2021/03/26 12:51:38;;;;;;;75.32;70.93;;;18.60;99.90;;;;;;5094229;28;20144;-62
2021/03/26 12:54:11;;;;;;;74.28;70.07;;;18.70;99.90;;;;;;5094422;28;20385;-61
2021/03/26 12:56:58;;;;;;;72.35;68.05;;;18.70;99.90;;;;;;5094662;28;20024;-61
2021/03/26 12:59:34;;;;;;;70.53;66.43;;;18.80;99.90;;;;;;5094939;28;20027;-63
2021/03/26 13:02:13;;;;;;;71.28;67.13;;;18.80;99.90;;;;;;5092971;28;20054;-62
2021/03/26 13:04:59;;;;;;;73.05;68.75;;;18.80;99.90;;;;;;5094257;28;20012;-61
2021/03/26 13:07:56;;;;;;;70.32;66.30;;;18.90;99.90;;;;;;5092910;28;20024;-62
2021/03/26 13:10:38;;;;;;;71.20;67.10;;;18.90;99.90;;;;;;5094330;28;20016;-62
2021/03/26 13:13:27;;;;;;;67.78;63.67;;;18.90;99.90;;;;;;5094621;28;20020;-62
2021/03/26 13:16:09;;;;;;;69.03;64.85;;;18.90;99.90;;;;;;5093952;28;20109;-62
2021/03/26 13:18:58;;;;;;;66.03;62.08;;;19.00;99.90;;;;;;5094237;28;20427;-61
2021/03/26 13:21:32;;;;;;;66.75;62.92;;;18.90;99.90;;;;;;5094163;28;20043;-62
2021/03/26 13:24:14;;;;;;;65.47;61.65;;;19.00;99.90;;;;;;5094217;28;20078;-62
2021/03/26 13:26:42;;;;;;;66.28;62.28;;;19.00;99.90;;;;;;5094066;28;20078;-62
2021/03/26 13:29:27;;;;;;;65.35;61.30;;;18.90;99.90;;;;;;5092825;28;20377;-61
2021/03/26 13:31:58;;;;;;;64.38;60.35;;;18.90;99.90;;;;;;5094027;28;20031;-62
2021/03/26 13:34:41;;;;;;;62.42;58.63;;;19.00;99.90;;;;;;5093958;28;20032;-61
2021/03/26 13:40:39;;;;;;;66.85;62.60;;;18.90;99.90;;;;;;5093528;28;20531;-62
2021/03/26 13:43:21;;;;;;;66.88;62.83;;;18.90;99.90;;;;;;5092070;28;20477;-62
2021/03/26 13:45:56;;;;;;;66.88;62.97;;;18.90;99.90;;;;;;5093430;28;20024;-62
2021/03/26 13:48:28;;;;;;;68.47;64.40;;;18.90;99.90;;;;;;5093546;28;20055;-61
2021/03/26 13:51:08;;;;;;;69.15;64.72;;;18.80;99.90;;;;;;5093486;28;20024;-61
2021/03/26 13:53:40;;;;;;;67.55;63.10;;;18.80;99.90;;;;;;5093387;28;20430;-62
2021/03/26 13:56:30;;;;;;;71.22;66.82;;;18.80;99.90;;;;;;5093368;28;20028;-61
2021/03/26 13:59:00;;;;;;;69.57;65.07;;;18.80;99.90;;;;;;5093471;28;20020;-62
2021/03/26 14:01:30;;;;;;;68.10;63.88;;;18.70;99.90;;;;;;5093447;28;20032;-62
2021/03/26 14:04:24;;;;;;;70.47;66.28;;;18.80;99.90;;;;;;5093563;28;20111;-62